createdAt,value
2018-11-10T00:01:19.746Z,6.10
2018-11-10T00:04:31.335Z,6.00
2018-11-10T00:07:42.912Z,6.00
2018-11-10T00:10:54.458Z,6.00
2018-11-10T00:14:06.515Z,6.00
2018-11-10T00:17:17.880Z,5.90
2018-11-10T00:20:29.444Z,5.90
2018-11-10T00:23:41.331Z,5.90
2018-11-10T00:26:53.378Z,5.90
2018-11-10T00:30:05.760Z,5.80
2018-11-10T00:33:16.850Z,5.70
2018-11-10T00:36:28.962Z,5.70
2018-11-10T00:39:40.965Z,5.60
2018-11-10T00:42:51.994Z,5.60
2018-11-10T00:46:04.795Z,5.70
2018-11-10T00:49:16.161Z,5.80
2018-11-10T00:52:27.418Z,5.70
2018-11-10T00:55:38.843Z,5.80
2018-11-10T00:58:50.975Z,5.70
2018-11-10T01:02:02.838Z,5.70
2018-11-10T01:05:14.162Z,5.70
2018-11-10T01:08:25.919Z,5.70
2018-11-10T01:11:37.226Z,5.70
2018-11-10T01:14:48.667Z,5.70
2018-11-10T01:18:00.678Z,5.60
2018-11-10T01:21:12.810Z,5.70
2018-11-10T01:24:24.000Z,5.60
2018-11-10T01:27:35.978Z,5.60
2018-11-10T01:30:48.071Z,5.60
2018-11-10T01:33:59.570Z,5.60
2018-11-10T01:37:11.123Z,5.60
2018-11-10T01:40:22.214Z,5.50
2018-11-10T01:43:33.319Z,5.40
2018-11-10T01:46:45.080Z,5.40
2018-11-10T01:49:56.560Z,5.50
2018-11-10T01:53:08.034Z,5.40
2018-11-10T01:56:19.776Z,5.40
2018-11-10T01:59:31.783Z,5.30
2018-11-10T02:02:44.248Z,5.10
2018-11-10T02:05:57.178Z,5.20
2018-11-10T02:09:10.670Z,5.00
2018-11-10T02:12:22.270Z,4.90
2018-11-10T02:15:33.861Z,4.90
2018-11-10T02:18:44.939Z,4.90
2018-11-10T02:21:56.108Z,4.90
2018-11-10T02:25:08.980Z,4.90
2018-11-10T02:28:21.318Z,4.90
2018-11-10T02:31:33.468Z,5.00
2018-11-10T02:34:45.216Z,5.00
2018-11-10T02:37:56.481Z,5.00
2018-11-10T02:41:07.746Z,5.00
2018-11-10T02:44:19.734Z,5.10
2018-11-10T02:47:31.130Z,5.00
2018-11-10T02:50:43.136Z,5.00
2018-11-10T02:53:53.956Z,5.00
2018-11-10T02:57:07.026Z,5.10
2018-11-10T03:00:19.357Z,5.20
2018-11-10T03:03:31.393Z,5.10
2018-11-10T03:06:42.615Z,5.10
2018-11-10T03:09:54.219Z,5.10
2018-11-10T03:13:06.074Z,5.10
2018-11-10T03:16:17.868Z,5.00
2018-11-10T03:19:29.201Z,5.00
2018-11-10T03:22:41.101Z,4.80
2018-11-10T03:25:52.355Z,4.90
2018-11-10T03:29:03.651Z,4.80
2018-11-10T03:32:15.081Z,4.70
2018-11-10T03:35:26.368Z,4.60
2018-11-10T03:38:37.482Z,4.50
2018-11-10T03:41:50.171Z,4.50
2018-11-10T03:45:01.600Z,4.50
2018-11-10T03:48:13.531Z,4.50
2018-11-10T03:51:25.384Z,4.60
2018-11-10T03:54:36.822Z,4.60
2018-11-10T03:57:47.936Z,4.60
2018-11-10T04:00:59.385Z,4.50
2018-11-10T04:04:11.311Z,4.60
2018-11-10T04:07:22.895Z,4.60
2018-11-10T04:10:34.744Z,4.60
2018-11-10T04:13:45.835Z,4.60
2018-11-10T04:16:58.201Z,4.50
2018-11-10T04:20:10.672Z,4.50
2018-11-10T04:23:22.099Z,4.60
2018-11-10T04:26:33.555Z,4.60
2018-11-10T04:29:44.466Z,4.70
2018-11-10T04:32:56.357Z,4.70
2018-11-10T04:36:08.227Z,4.80
2018-11-10T04:43:12.754Z,4.80
2018-11-10T04:46:24.017Z,4.80
2018-11-10T04:49:35.790Z,4.80
2018-11-10T04:52:47.320Z,4.80
2018-11-10T04:55:59.323Z,4.90
2018-11-10T04:59:11.043Z,4.80
2018-11-10T05:02:23.101Z,4.80
2018-11-10T05:05:35.140Z,4.80
2018-11-10T05:08:46.998Z,4.80
2018-11-10T05:11:58.411Z,4.90
2018-11-10T05:15:11.355Z,5.10
2018-11-10T05:22:06.055Z,5.20
2018-11-10T05:25:17.436Z,5.20
2018-11-10T05:28:28.704Z,5.40
2018-11-10T05:31:50.328Z,5.40
2018-11-10T05:35:02.196Z,5.40
2018-11-10T05:38:14.361Z,5.40
2018-11-10T05:41:25.410Z,5.40
2018-11-10T05:44:37.062Z,5.50
2018-11-10T05:47:48.769Z,5.50
2018-11-10T05:51:00.473Z,5.50
2018-11-10T05:54:11.932Z,5.50
2018-11-10T05:57:23.039Z,5.50
2018-11-10T06:00:34.326Z,5.50
2018-11-10T06:03:46.391Z,5.50
2018-11-10T06:06:57.515Z,5.30
2018-11-10T06:10:10.949Z,5.30
2018-11-10T06:13:22.396Z,5.20
2018-11-10T06:16:33.749Z,5.00
2018-11-10T06:19:45.099Z,4.90
2018-11-10T06:22:56.514Z,4.80
2018-11-10T06:26:07.942Z,4.70
2018-11-10T06:29:19.235Z,4.60
2018-11-10T06:32:30.922Z,4.70
2018-11-10T06:35:42.740Z,4.80
2018-11-10T06:38:53.646Z,5.00
2018-11-10T06:42:05.911Z,5.20
2018-11-10T06:45:17.251Z,5.30
2018-11-10T06:48:28.375Z,5.40
2018-11-10T06:51:40.112Z,5.50
2018-11-10T06:54:51.364Z,5.60
2018-11-10T06:58:02.819Z,5.60
2018-11-10T07:01:14.466Z,5.60
2018-11-10T07:04:52.744Z,5.70
2018-11-10T07:08:04.905Z,5.80
2018-11-10T07:11:16.139Z,5.80
2018-11-10T07:14:27.503Z,5.90
2018-11-10T07:17:38.842Z,5.90
2018-11-10T07:20:50.588Z,6.00
2018-11-10T07:24:02.482Z,6.10
2018-11-10T07:27:14.511Z,6.20
2018-11-10T07:30:25.997Z,6.30
2018-11-10T07:33:37.329Z,6.30
2018-11-10T07:36:49.568Z,6.40
2018-11-10T07:40:01.437Z,6.50
2018-11-10T07:43:12.875Z,6.60
2018-11-10T07:46:24.466Z,6.80
2018-11-10T07:49:35.816Z,6.90
2018-11-10T07:52:47.589Z,7.10
2018-11-10T07:55:59.138Z,7.30
2018-11-10T07:59:10.773Z,7.40
2018-11-10T08:02:22.113Z,7.50
2018-11-10T08:05:33.541Z,7.60
2018-11-10T08:08:45.035Z,7.60
2018-11-10T08:11:56.521Z,7.70
2018-11-10T08:15:12.014Z,7.80
2018-11-10T08:18:23.332Z,7.90
2018-11-10T08:21:35.386Z,8.10
2018-11-10T08:24:47.022Z,8.20
2018-11-10T08:27:58.939Z,8.30
2018-11-10T08:31:10.700Z,8.40
2018-11-10T08:34:22.254Z,8.50
2018-11-10T08:37:34.725Z,8.60
2018-11-10T08:40:46.058Z,8.80
2018-11-10T08:43:57.074Z,8.90
2018-11-10T08:47:09.588Z,9.00
2018-11-10T08:50:21.401Z,9.20
2018-11-10T08:53:33.354Z,9.30
2018-11-10T08:56:45.496Z,9.50
2018-11-10T08:59:57.384Z,9.50
2018-11-10T09:03:10.088Z,9.70
2018-11-10T09:06:21.085Z,9.80
2018-11-10T09:09:32.571Z,9.80
2018-11-10T09:12:44.208Z,9.90
2018-11-10T09:15:57.745Z,10.10
2018-11-10T09:19:09.392Z,10.10
2018-11-10T09:22:20.621Z,10.30
2018-11-10T09:25:33.242Z,10.50
2018-11-10T09:28:45.362Z,10.60
2018-11-10T09:31:57.266Z,10.70
2018-11-10T09:35:11.015Z,10.80
2018-11-10T09:38:22.726Z,10.80
2018-11-10T09:41:33.834Z,10.90
2018-11-10T09:44:45.236Z,10.90
2018-11-10T09:47:57.368Z,11.00
2018-11-10T09:51:08.598Z,11.10
2018-11-10T09:54:20.767Z,11.10
2018-11-10T09:57:32.307Z,11.20
2018-11-10T10:00:44.079Z,11.30
2018-11-10T10:03:55.724Z,11.40
2018-11-10T10:07:07.966Z,11.40
2018-11-10T10:10:20.188Z,11.50
2018-11-10T10:13:31.315Z,11.60
2018-11-10T10:16:43.207Z,11.70
2018-11-10T10:19:55.460Z,11.80
2018-11-10T10:23:06.871Z,12.00
2018-11-10T10:26:19.936Z,12.00
2018-11-10T10:29:31.235Z,12.10
2018-11-10T10:32:45.136Z,12.10
2018-11-10T10:35:57.903Z,12.30
2018-11-10T10:39:09.985Z,12.30
2018-11-10T10:42:22.037Z,12.30
2018-11-10T10:45:33.492Z,12.30
2018-11-10T10:48:44.665Z,12.30
2018-11-10T10:51:56.760Z,12.30
2018-11-10T10:55:08.785Z,12.40
2018-11-10T10:58:20.039Z,12.40
2018-11-10T11:01:36.336Z,12.50
2018-11-10T11:04:53.068Z,12.50
2018-11-10T11:08:04.567Z,12.40
2018-11-10T11:11:16.811Z,12.40
2018-11-10T11:14:27.873Z,12.40
2018-11-10T11:17:38.931Z,12.50
2018-11-10T11:20:51.289Z,12.50
2018-11-10T11:24:02.757Z,12.50
2018-11-10T11:27:14.237Z,12.60
2018-11-10T11:30:26.765Z,12.60
2018-11-10T11:33:38.013Z,12.70
2018-11-10T11:36:50.262Z,12.60
2018-11-10T11:40:02.223Z,12.70
2018-11-10T11:43:13.232Z,12.90
2018-11-10T11:46:24.633Z,12.90
2018-11-10T11:49:35.858Z,12.90
2018-11-10T11:52:48.456Z,13.00
2018-11-10T11:55:59.798Z,13.10
2018-11-10T11:59:11.426Z,13.20
2018-11-10T12:02:23.484Z,13.20
2018-11-10T12:05:35.660Z,13.20
2018-11-10T12:08:47.992Z,13.30
2018-11-10T12:11:59.968Z,13.30
2018-11-10T12:15:13.231Z,13.40
2018-11-10T12:18:25.811Z,13.40
2018-11-10T12:21:37.554Z,13.50
2018-11-10T12:24:49.678Z,13.70
2018-11-10T12:28:01.274Z,13.80
2018-11-10T12:31:33.789Z,13.90
2018-11-10T12:34:45.448Z,14.00
2018-11-10T12:37:56.856Z,14.10
2018-11-10T12:41:08.742Z,14.30
2018-11-10T12:44:19.976Z,14.40
2018-11-10T12:47:31.752Z,14.40
2018-11-10T12:50:43.958Z,14.50
2018-11-10T12:53:55.443Z,14.50
2018-11-10T12:57:07.500Z,14.60
2018-11-10T13:00:20.012Z,14.70
2018-11-10T13:03:37.718Z,14.70
2018-11-10T13:06:51.231Z,14.70
2018-11-10T13:10:02.961Z,14.90
2018-11-10T13:13:15.237Z,15.00
2018-11-10T13:16:26.433Z,15.00
2018-11-10T13:23:52.555Z,15.10
2018-11-10T13:27:04.536Z,15.10
2018-11-10T13:30:16.406Z,15.20
2018-11-10T13:33:29.309Z,15.20
2018-11-10T13:36:40.496Z,15.30
2018-11-10T13:39:53.197Z,15.40
2018-11-10T13:43:06.499Z,15.50
2018-11-10T13:46:18.670Z,15.60
2018-11-10T13:49:29.816Z,15.70
2018-11-10T13:52:42.481Z,15.80
2018-11-10T13:55:54.560Z,15.80
2018-11-10T13:59:07.534Z,15.90
2018-11-10T14:02:20.118Z,15.90
2018-11-10T14:05:32.988Z,15.90
2018-11-10T14:08:44.439Z,16.10
2018-11-10T14:12:06.877Z,16.00
2018-11-10T14:15:18.761Z,16.00
2018-11-10T14:18:30.494Z,16.00
2018-11-10T14:21:42.558Z,15.80
2018-11-10T14:24:54.746Z,15.60
2018-11-10T14:28:06.616Z,15.50
2018-11-10T14:31:18.379Z,15.50
2018-11-10T14:34:30.389Z,15.30
2018-11-10T14:37:42.190Z,15.10
2018-11-10T14:40:53.451Z,14.90
2018-11-10T14:44:05.770Z,14.70
2018-11-10T14:47:17.911Z,14.50
2018-11-10T14:50:29.118Z,14.40
2018-11-10T14:53:40.454Z,14.40
2018-11-10T14:56:52.045Z,14.40
2018-11-10T15:00:04.794Z,14.00
2018-11-10T15:03:16.169Z,14.00
2018-11-10T15:06:28.176Z,13.80
2018-11-10T15:09:39.652Z,13.70
2018-11-10T15:12:51.022Z,13.60
2018-11-10T15:16:02.895Z,13.60
2018-11-10T15:19:14.682Z,13.40
2018-11-10T15:22:27.065Z,13.20
2018-11-10T15:25:38.220Z,13.10
2018-11-10T15:28:49.406Z,12.90
2018-11-10T15:32:01.727Z,12.80
2018-11-10T15:35:15.220Z,12.60
2018-11-10T15:38:27.790Z,12.40
2018-11-10T15:41:40.114Z,12.20
2018-11-10T15:44:51.161Z,12.10
2018-11-10T15:48:02.312Z,12.00
2018-11-10T15:51:14.321Z,11.80
2018-11-10T15:54:26.850Z,11.50
2018-11-10T15:57:39.323Z,11.40
2018-11-10T16:00:51.146Z,11.30
2018-11-10T16:04:03.872Z,11.20
2018-11-10T16:10:32.244Z,10.80
2018-11-10T16:13:43.350Z,10.70
2018-11-10T16:16:54.531Z,10.70
2018-11-10T16:20:08.877Z,10.60
2018-11-10T16:23:20.422Z,10.50
2018-11-10T16:26:32.370Z,10.40
2018-11-10T16:29:43.526Z,10.40
2018-11-10T16:32:55.533Z,10.30
2018-11-10T16:36:07.161Z,10.20
2018-11-10T16:39:21.985Z,10.20
2018-11-10T16:42:33.481Z,10.20
2018-11-10T16:45:48.604Z,10.00
2018-11-10T16:49:01.522Z,9.90
2018-11-10T16:52:14.582Z,9.90
2018-11-10T16:55:28.964Z,9.70
2018-11-10T16:58:41.463Z,9.60
2018-11-10T17:01:54.778Z,9.50
2018-11-10T17:05:08.852Z,9.50
2018-11-10T17:08:22.370Z,9.60
2018-11-10T17:11:37.043Z,9.50
2018-11-10T17:14:52.798Z,9.60
2018-11-10T17:18:04.062Z,9.50
2018-11-10T17:21:15.975Z,9.40
2018-11-10T17:24:27.178Z,9.40
2018-11-10T17:27:38.813Z,9.40
2018-11-10T17:30:53.640Z,9.40
2018-11-10T17:34:07.637Z,9.40
2018-11-10T17:37:22.654Z,9.50
2018-11-10T17:40:36.875Z,9.40
2018-11-10T17:43:50.790Z,9.20
2018-11-10T17:47:04.274Z,9.20
2018-11-10T17:50:17.825Z,9.10
2018-11-10T17:53:30.096Z,9.10
2018-11-10T17:56:51.289Z,9.00
2018-11-10T18:00:04.922Z,8.90
2018-11-10T18:03:17.469Z,8.80
2018-11-10T18:06:28.628Z,8.80
2018-11-10T18:09:39.699Z,8.80
2018-11-10T18:12:51.117Z,8.80
2018-11-10T18:16:02.913Z,8.70
2018-11-10T18:19:14.775Z,8.60
2018-11-10T18:22:26.395Z,8.50
2018-11-10T18:25:37.950Z,8.50
2018-11-10T18:28:49.900Z,8.50
2018-11-10T18:32:01.121Z,8.40
2018-11-10T18:35:14.006Z,8.30
2018-11-10T18:38:26.699Z,8.30
2018-11-10T18:41:37.918Z,8.30
2018-11-10T18:44:49.471Z,8.20
2018-11-10T18:48:01.397Z,8.20
2018-11-10T18:51:15.231Z,8.20
2018-11-10T18:54:27.200Z,8.10
2018-11-10T18:57:39.120Z,8.10
2018-11-10T19:00:51.018Z,8.00
2018-11-10T19:04:02.854Z,8.00
2018-11-10T19:07:14.533Z,8.00
2018-11-10T19:10:25.743Z,7.90
2018-11-10T19:13:37.416Z,7.90
2018-11-10T19:16:48.935Z,7.90
2018-11-10T19:20:01.165Z,7.80
2018-11-10T19:23:13.477Z,7.70
2018-11-10T19:26:25.464Z,7.70
2018-11-10T19:29:37.340Z,7.70
2018-11-10T19:32:50.467Z,7.60
2018-11-10T19:36:02.255Z,7.60
2018-11-10T19:39:14.266Z,7.60
2018-11-10T19:42:26.113Z,7.60
2018-11-10T19:45:37.880Z,7.60
2018-11-10T19:48:49.559Z,7.50
2018-11-10T19:52:01.200Z,7.50
2018-11-10T19:55:15.035Z,7.50
2018-11-10T19:58:26.552Z,7.50
2018-11-10T20:01:38.033Z,7.50
2018-11-10T20:04:50.965Z,7.50
2018-11-10T20:08:02.074Z,7.50
2018-11-10T20:11:13.118Z,7.40
2018-11-10T20:14:25.175Z,7.40
2018-11-10T20:17:37.134Z,7.30
2018-11-10T20:20:50.272Z,7.30
2018-11-10T20:24:01.962Z,7.30
2018-11-10T20:27:13.554Z,7.30
2018-11-10T20:30:25.757Z,7.30
2018-11-10T20:33:37.150Z,7.30
2018-11-10T20:36:48.974Z,7.20
2018-11-10T20:40:01.022Z,7.30
2018-11-10T20:43:12.797Z,7.20
2018-11-10T20:46:24.475Z,7.30
2018-11-10T20:49:36.203Z,7.20
2018-11-10T20:52:47.379Z,7.20
2018-11-10T20:55:58.675Z,7.30
2018-11-10T20:59:10.508Z,7.30
2018-11-10T21:02:22.055Z,7.20
2018-11-10T21:05:34.317Z,7.20
2018-11-10T21:08:47.223Z,7.20
2018-11-10T21:11:58.754Z,7.10
2018-11-10T21:15:11.066Z,7.00
2018-11-10T21:18:23.241Z,7.00
2018-11-10T21:21:35.293Z,7.00
2018-11-10T21:24:46.351Z,7.00
2018-11-10T21:27:57.378Z,7.00
2018-11-10T21:31:08.443Z,6.90
2018-11-10T21:34:19.600Z,6.90
2018-11-10T21:37:30.675Z,6.80
2018-11-10T21:40:42.474Z,6.90
2018-11-10T21:43:53.810Z,6.80
2018-11-10T21:47:06.485Z,6.80
2018-11-10T21:50:19.296Z,6.70
2018-11-10T21:53:30.482Z,6.70
2018-11-10T21:56:42.159Z,6.70
2018-11-10T21:59:53.149Z,6.60
2018-11-10T22:03:04.331Z,6.60
2018-11-10T22:06:17.147Z,6.60
2018-11-10T22:09:28.486Z,6.70
2018-11-10T22:12:39.920Z,6.60
2018-11-10T22:15:51.781Z,6.60
2018-11-10T22:19:04.001Z,6.60
2018-11-10T22:22:15.289Z,6.60
2018-11-10T22:25:26.814Z,6.60
2018-11-10T22:28:38.340Z,6.60
2018-11-10T22:31:49.323Z,6.50
2018-11-10T22:35:01.166Z,6.50
2018-11-10T22:38:13.918Z,6.60
2018-11-10T22:41:26.161Z,6.50
2018-11-10T22:44:38.486Z,6.50
2018-11-10T22:47:50.688Z,6.40
2018-11-10T22:51:02.429Z,6.40
2018-11-10T22:54:14.094Z,6.50
2018-11-10T22:57:26.076Z,6.50
2018-11-10T23:00:42.294Z,6.50
2018-11-10T23:03:53.805Z,6.50
2018-11-10T23:07:06.583Z,6.40
2018-11-10T23:10:18.072Z,6.30
2018-11-10T23:13:29.815Z,6.30
2018-11-10T23:16:41.259Z,6.20
2018-11-10T23:19:52.716Z,6.10
2018-11-10T23:23:03.877Z,6.10
2018-11-10T23:26:15.670Z,6.10
2018-11-10T23:29:28.040Z,6.00
2018-11-10T23:32:40.451Z,6.00
2018-11-10T23:35:51.755Z,6.00
2018-11-10T23:39:03.184Z,5.90
2018-11-10T23:42:14.674Z,5.80
2018-11-10T23:45:28.612Z,5.70
2018-11-10T23:48:39.839Z,5.60
2018-11-10T23:51:51.630Z,5.60
2018-11-10T23:55:03.595Z,5.60
2018-11-10T23:58:15.576Z,5.50
